sensor_id;sensor_type;location;lat;lon;timestamp;pressure;altitude;pressure_sealevel;temperature;humidity
35551;BME280;21655;46.056;13.616;2022-12-19T00:02:03;102267.56;;;2.35;100.00
35551;BME280;21655;46.056;13.616;2022-12-19T00:04:29;102258.19;;;2.39;100.00
35551;BME280;21655;46.056;13.616;2022-12-19T00:06:58;102262.31;;;2.31;100.00
35551;BME280;21655;46.056;13.616;2022-12-19T00:09:24;102266.81;;;2.32;100.00
35551;BME280;21655;46.056;13.616;2022-12-19T00:11:50;102259.41;;;2.34;100.00
35551;BME280;21655;46.056;13.616;2022-12-19T00:14:15;102258.53;;;2.33;100.00
35551;BME280;21655;46.056;13.616;2022-12-19T00:16:41;102262.88;;;2.37;100.00
35551;BME280;21655;46.056;13.616;2022-12-19T00:19:09;102244.34;;;2.42;100.00
35551;BME280;21655;46.056;13.616;2022-12-19T00:21:34;102255.28;;;2.42;100.00
35551;BME280;21655;46.056;13.616;2022-12-19T00:24:00;102253.22;;;2.47;100.00
35551;BME280;21655;46.056;13.616;2022-12-19T00:26:28;102260.34;;;2.50;100.00
35551;BME280;21655;46.056;13.616;2022-12-19T00:28:56;102257.38;;;2.54;100.00
35551;BME280;21655;46.056;13.616;2022-12-19T00:31:24;102250.75;;;2.58;100.00
35551;BME280;21655;46.056;13.616;2022-12-19T00:33:49;102256.84;;;2.63;100.00
35551;BME280;21655;46.056;13.616;2022-12-19T00:36:19;102268.53;;;2.67;100.00
35551;BME280;21655;46.056;13.616;2022-12-19T00:38:45;102283.94;;;2.69;100.00
35551;BME280;21655;46.056;13.616;2022-12-19T00:41:15;102284.78;;;2.70;100.00
35551;BME280;21655;46.056;13.616;2022-12-19T00:43:41;102282.84;;;2.72;100.00
35551;BME280;21655;46.056;13.616;2022-12-19T00:46:11;102277.94;;;2.78;100.00
35551;BME280;21655;46.056;13.616;2022-12-19T00:48:37;102260.69;;;2.76;100.00
35551;BME280;21655;46.056;13.616;2022-12-19T00:51:11;102254.19;;;2.79;100.00
35551;BME280;21655;46.056;13.616;2022-12-19T00:53:37;102255.31;;;2.75;100.00
35551;BME280;21655;46.056;13.616;2022-12-19T00:56:05;102257.88;;;2.78;100.00
35551;BME280;21655;46.056;13.616;2022-12-19T00:58:30;102261.41;;;2.80;100.00
35551;BME280;21655;46.056;13.616;2022-12-19T01:00:56;102264.16;;;2.80;100.00
35551;BME280;21655;46.056;13.616;2022-12-19T01:03:23;102281.16;;;2.86;100.00
35551;BME280;21655;46.056;13.616;2022-12-19T01:05:50;102298.44;;;2.87;100.00
35551;BME280;21655;46.056;13.616;2022-12-19T01:08:16;102304.66;;;2.90;100.00
35551;BME280;21655;46.056;13.616;2022-12-19T01:10:45;102304.47;;;2.93;100.00
35551;BME280;21655;46.056;13.616;2022-12-19T01:13:11;102307.50;;;2.89;100.00
35551;BME280;21655;46.056;13.616;2022-12-19T01:15:38;102301.91;;;2.90;100.00
35551;BME280;21655;46.056;13.616;2022-12-19T01:18:06;102288.13;;;2.92;100.00
35551;BME280;21655;46.056;13.616;2022-12-19T01:20:37;102283.47;;;2.94;100.00
35551;BME280;21655;46.056;13.616;2022-12-19T01:23:04;102280.63;;;2.95;100.00
35551;BME280;21655;46.056;13.616;2022-12-19T01:25:29;102276.09;;;2.94;100.00
35551;BME280;21655;46.056;13.616;2022-12-19T01:27:55;102267.09;;;2.92;100.00
35551;BME280;21655;46.056;13.616;2022-12-19T01:30:21;102278.16;;;2.91;100.00
35551;BME280;21655;46.056;13.616;2022-12-19T01:32:46;102286.38;;;2.91;100.00
35551;BME280;21655;46.056;13.616;2022-12-19T01:35:12;102280.47;;;2.98;100.00
35551;BME280;21655;46.056;13.616;2022-12-19T01:37:37;102275.97;;;2.97;100.00
35551;BME280;21655;46.056;13.616;2022-12-19T01:40:03;102272.16;;;3.00;100.00
35551;BME280;21655;46.056;13.616;2022-12-19T01:42:34;102271.41;;;2.96;100.00
35551;BME280;21655;46.056;13.616;2022-12-19T01:47:47;102258.69;;;2.95;100.00
35551;BME280;21655;46.056;13.616;2022-12-19T01:50:16;102263.38;;;2.93;100.00
35551;BME280;21655;46.056;13.616;2022-12-19T01:52:42;102264.19;;;2.95;100.00
35551;BME280;21655;46.056;13.616;2022-12-19T01:55:09;102248.81;;;2.93;100.00
35551;BME280;21655;46.056;13.616;2022-12-19T01:57:35;102251.38;;;2.96;100.00
35551;BME280;21655;46.056;13.616;2022-12-19T02:00:02;102246.94;;;2.93;100.00
35551;BME280;21655;46.056;13.616;2022-12-19T02:02:34;102234.94;;;2.96;100.00
35551;BME280;21655;46.056;13.616;2022-12-19T02:05:03;102230.63;;;2.92;100.00
35551;BME280;21655;46.056;13.616;2022-12-19T02:07:30;102228.50;;;2.97;100.00
35551;BME280;21655;46.056;13.616;2022-12-19T02:09:56;102231.31;;;2.95;100.00
35551;BME280;21655;46.056;13.616;2022-12-19T02:12:27;102230.25;;;2.98;100.00
35551;BME280;21655;46.056;13.616;2022-12-19T02:14:54;102224.84;;;2.96;100.00
35551;BME280;21655;46.056;13.616;2022-12-19T02:31:58;102223.56;;;3.03;100.00
35551;BME280;21655;46.056;13.616;2022-12-19T02:37:06;102223.63;;;3.02;100.00
35551;BME280;21655;46.056;13.616;2022-12-19T02:42:08;102218.88;;;3.05;100.00
35551;BME280;21655;46.056;13.616;2022-12-19T02:44:39;102228.66;;;3.09;100.00
35551;BME280;21655;46.056;13.616;2022-12-19T02:47:07;102237.97;;;3.07;100.00
35551;BME280;21655;46.056;13.616;2022-12-19T02:49:35;102222.41;;;3.07;100.00
35551;BME280;21655;46.056;13.616;2022-12-19T02:54:48;102212.22;;;3.09;100.00
35551;BME280;21655;46.056;13.616;2022-12-19T03:10:57;102198.53;;;3.09;100.00
35551;BME280;21655;46.056;13.616;2022-12-19T03:13:40;102209.66;;;3.06;100.00
35551;BME280;21655;46.056;13.616;2022-12-19T03:16:09;102205.16;;;3.05;100.00
35551;BME280;21655;46.056;13.616;2022-12-19T03:18:36;102198.53;;;3.09;100.00
35551;BME280;21655;46.056;13.616;2022-12-19T03:21:25;102198.44;;;3.11;100.00
35551;BME280;21655;46.056;13.616;2022-12-19T03:23:53;102191.28;;;3.08;100.00
35551;BME280;21655;46.056;13.616;2022-12-19T03:26:26;102182.09;;;3.09;100.00
35551;BME280;21655;46.056;13.616;2022-12-19T03:28:55;102202.88;;;3.13;100.00
35551;BME280;21655;46.056;13.616;2022-12-19T03:31:24;102198.34;;;3.12;100.00
35551;BME280;21655;46.056;13.616;2022-12-19T03:33:54;102198.44;;;3.11;100.00
35551;BME280;21655;46.056;13.616;2022-12-19T03:36:24;102201.19;;;3.11;100.00
35551;BME280;21655;46.056;13.616;2022-12-19T03:38:51;102200.03;;;3.15;100.00
35551;BME280;21655;46.056;13.616;2022-12-19T03:41:21;102206.22;;;3.18;100.00
35551;BME280;21655;46.056;13.616;2022-12-19T03:44:10;102188.69;;;3.21;100.00
35551;BME280;21655;46.056;13.616;2022-12-19T03:46:42;102200.63;;;3.20;100.00
35551;BME280;21655;46.056;13.616;2022-12-19T03:49:10;102195.09;;;3.21;100.00
35551;BME280;21655;46.056;13.616;2022-12-19T03:56:40;102179.53;;;3.22;100.00
35551;BME280;21655;46.056;13.616;2022-12-19T03:59:22;102181.19;;;3.24;100.00
35551;BME280;21655;46.056;13.616;2022-12-19T04:01:52;102172.09;;;3.24;100.00
35551;BME280;21655;46.056;13.616;2022-12-19T04:04:19;102170.34;;;3.23;100.00
35551;BME280;21655;46.056;13.616;2022-12-19T04:06:47;102170.34;;;3.23;100.00
35551;BME280;21655;46.056;13.616;2022-12-19T04:09:14;102172.38;;;3.19;100.00
35551;BME280;21655;46.056;13.616;2022-12-19T04:11:46;102180.34;;;3.24;100.00
35551;BME280;21655;46.056;13.616;2022-12-19T04:14:17;102174.84;;;3.24;100.00
35551;BME280;21655;46.056;13.616;2022-12-19T04:16:54;102175.53;;;3.27;100.00
35551;BME280;21655;46.056;13.616;2022-12-19T04:19:30;102173.56;;;3.29;100.00
35551;BME280;21655;46.056;13.616;2022-12-19T04:22:04;102179.25;;;3.26;100.00
35551;BME280;21655;46.056;13.616;2022-12-19T04:24:35;102185.38;;;3.31;100.00
35551;BME280;21655;46.056;13.616;2022-12-19T04:27:04;102174.94;;;3.22;100.00
35551;BME280;21655;46.056;13.616;2022-12-19T04:29:33;102173.75;;;3.26;100.00
35551;BME280;21655;46.056;13.616;2022-12-19T04:32:02;102172.00;;;3.25;100.00
35551;BME280;21655;46.056;13.616;2022-12-19T04:34:31;102181.31;;;3.23;100.00
35551;BME280;21655;46.056;13.616;2022-12-19T04:36:57;102187.84;;;3.20;100.00
35551;BME280;21655;46.056;13.616;2022-12-19T04:39:23;102180.47;;;3.21;100.00
35551;BME280;21655;46.056;13.616;2022-12-19T04:41:49;102169.69;;;3.18;100.00
35551;BME280;21655;46.056;13.616;2022-12-19T04:44:15;102176.81;;;3.22;100.00
35551;BME280;21655;46.056;13.616;2022-12-19T04:46:40;102175.81;;;3.23;100.00
35551;BME280;21655;46.056;13.616;2022-12-19T04:49:05;102177.59;;;3.24;100.00
35551;BME280;21655;46.056;13.616;2022-12-19T04:51:31;102182.28;;;3.22;100.00
35551;BME280;21655;46.056;13.616;2022-12-19T04:53:56;102188.81;;;3.19;100.00
35551;BME280;21655;46.056;13.616;2022-12-19T04:56:22;102194.66;;;3.13;100.00
35551;BME280;21655;46.056;13.616;2022-12-19T04:58:48;102195.00;;;3.07;100.00
35551;BME280;21655;46.056;13.616;2022-12-19T05:01:13;102197.13;;;3.02;100.00
35551;BME280;21655;46.056;13.616;2022-12-19T05:03:38;102186.41;;;2.98;100.00
35551;BME280;21655;46.056;13.616;2022-12-19T05:06:11;102185.16;;;2.88;100.00
35551;BME280;21655;46.056;13.616;2022-12-19T05:08:39;102182.59;;;2.85;100.00
35551;BME280;21655;46.056;13.616;2022-12-19T05:11:05;102183.75;;;2.81;100.00
35551;BME280;21655;46.056;13.616;2022-12-19T05:13:31;102184.38;;;2.86;100.00
35551;BME280;21655;46.056;13.616;2022-12-19T05:15:58;102181.63;;;2.86;100.00
35551;BME280;21655;46.056;13.616;2022-12-19T05:18:24;102179.69;;;2.88;100.00
35551;BME280;21655;46.056;13.616;2022-12-19T05:20:50;102178.81;;;2.87;100.00
35551;BME280;21655;46.056;13.616;2022-12-19T05:23:16;102194.53;;;2.84;100.00
35551;BME280;21655;46.056;13.616;2022-12-19T05:25:42;102195.31;;;2.86;100.00
35551;BME280;21655;46.056;13.616;2022-12-19T05:28:07;102187.09;;;2.86;100.00
35551;BME280;21655;46.056;13.616;2022-12-19T05:30:32;102179.44;;;2.92;100.00
35551;BME280;21655;46.056;13.616;2022-12-19T05:32:58;102175.72;;;2.93;100.00
35551;BME280;21655;46.056;13.616;2022-12-19T05:35:23;102188.81;;;2.88;100.00
35551;BME280;21655;46.056;13.616;2022-12-19T05:37:49;102179.69;;;2.88;100.00
35551;BME280;21655;46.056;13.616;2022-12-19T05:40:14;102176.94;;;2.88;100.00
35551;BME280;21655;46.056;13.616;2022-12-19T05:42:40;102179.63;;;2.89;100.00
35551;BME280;21655;46.056;13.616;2022-12-19T05:45:06;102178.81;;;2.87;100.00
35551;BME280;21655;46.056;13.616;2022-12-19T05:47:31;102175.28;;;2.85;100.00
35551;BME280;21655;46.056;13.616;2022-12-19T05:49:56;102186.97;;;2.89;100.00
35551;BME280;21655;46.056;13.616;2022-12-19T05:52:22;102203.28;;;2.90;100.00
35551;BME280;21655;46.056;13.616;2022-12-19T05:54:49;102197.56;;;2.95;100.00
35551;BME280;21655;46.056;13.616;2022-12-19T05:57:14;102193.78;;;2.97;100.00
35551;BME280;21655;46.056;13.616;2022-12-19T05:59:40;102206.31;;;3.01;100.00
35551;BME280;21655;46.056;13.616;2022-12-19T06:02:06;102205.34;;;3.02;100.00
35551;BME280;21655;46.056;13.616;2022-12-19T06:04:31;102205.34;;;3.02;100.00
35551;BME280;21655;46.056;13.616;2022-12-19T06:06:57;102206.22;;;3.03;100.00
35551;BME280;21655;46.056;13.616;2022-12-19T06:09:22;102213.31;;;3.07;100.00
35551;BME280;21655;46.056;13.616;2022-12-19T06:11:48;102215.94;;;3.08;100.00
35551;BME280;21655;46.056;13.616;2022-12-19T06:14:13;102211.53;;;3.06;100.00
35551;BME280;21655;46.056;13.616;2022-12-19T06:16:39;102216.03;;;3.07;100.00
35551;BME280;21655;46.056;13.616;2022-12-19T06:19:04;102203.31;;;3.06;100.00
35551;BME280;21655;46.056;13.616;2022-12-19T06:21:29;102213.81;;;2.98;100.00
35551;BME280;21655;46.056;13.616;2022-12-19T06:23:55;102202.31;;;2.91;100.00
35551;BME280;21655;46.056;13.616;2022-12-19T06:26:21;102202.56;;;2.87;100.00
35551;BME280;21655;46.056;13.616;2022-12-19T06:28:50;102208.06;;;2.87;100.00
35551;BME280;21655;46.056;13.616;2022-12-19T06:31:17;102202.69;;;2.85;100.00
35551;BME280;21655;46.056;13.616;2022-12-19T06:33:43;102207.19;;;2.86;100.00
35551;BME280;21655;46.056;13.616;2022-12-19T06:36:20;102208.47;;;2.79;100.00
35551;BME280;21655;46.056;13.616;2022-12-19T06:38:46;102203.41;;;2.89;100.00
35551;BME280;21655;46.056;13.616;2022-12-19T06:41:13;102204.44;;;2.86;100.00
35551;BME280;21655;46.056;13.616;2022-12-19T06:44:03;102205.25;;;2.88;100.00
35551;BME280;21655;46.056;13.616;2022-12-19T06:46:29;102190.50;;;2.91;100.00
35551;BME280;21655;46.056;13.616;2022-12-19T06:48:55;102195.69;;;2.95;100.00
35551;BME280;21655;46.056;13.616;2022-12-19T06:51:21;102194.03;;;2.93;100.00
35551;BME280;21655;46.056;13.616;2022-12-19T06:53:47;102191.03;;;2.97;100.00
35551;BME280;21655;46.056;13.616;2022-12-19T06:56:14;102194.38;;;3.02;100.00
35551;BME280;21655;46.056;13.616;2022-12-19T06:58:40;102190.13;;;3.12;100.00
35551;BME280;21655;46.056;13.616;2022-12-19T07:01:05;102202.59;;;3.18;100.00
35551;BME280;21655;46.056;13.616;2022-12-19T07:03:35;102201.16;;;3.26;100.00
35551;BME280;21655;46.056;13.616;2022-12-19T07:06:02;102203.38;;;3.35;100.00
35551;BME280;21655;46.056;13.616;2022-12-19T07:08:28;102202.84;;;3.44;100.00
35551;BME280;21655;46.056;13.616;2022-12-19T07:10:54;102193.38;;;3.50;100.00
35551;BME280;21655;46.056;13.616;2022-12-19T07:13:19;102200.72;;;3.49;100.00
35551;BME280;21655;46.056;13.616;2022-12-19T07:15:45;102207.00;;;3.51;100.00
35551;BME280;21655;46.056;13.616;2022-12-19T07:18:11;102208.56;;;3.55;100.00
35551;BME280;21655;46.056;13.616;2022-12-19T07:20:38;102215.38;;;3.63;100.00
35551;BME280;21655;46.056;13.616;2022-12-19T07:23:06;102219.16;;;3.61;100.00
35551;BME280;21655;46.056;13.616;2022-12-19T07:25:32;102221.47;;;3.68;100.00
35551;BME280;21655;46.056;13.616;2022-12-19T07:27:58;102219.44;;;3.72;100.00
35551;BME280;21655;46.056;13.616;2022-12-19T07:30:24;102218.97;;;3.79;100.00
35551;BME280;21655;46.056;13.616;2022-12-19T07:32:49;102220.28;;;3.88;100.00
35551;BME280;21655;46.056;13.616;2022-12-19T07:35:15;102214.78;;;3.88;100.00
35551;BME280;21655;46.056;13.616;2022-12-19T07:37:40;102212.03;;;3.88;100.00
35551;BME280;21655;46.056;13.616;2022-12-19T07:40:06;102221.44;;;3.84;100.00
35551;BME280;21655;46.056;13.616;2022-12-19T07:42:32;102228.78;;;3.83;100.00
35551;BME280;21655;46.056;13.616;2022-12-19T07:44:58;102226.34;;;3.79;100.00
35551;BME280;21655;46.056;13.616;2022-12-19T07:47:23;102232.41;;;3.84;100.00
35551;BME280;21655;46.056;13.616;2022-12-19T07:49:52;102219.75;;;3.81;100.00
35551;BME280;21655;46.056;13.616;2022-12-19T07:52:17;102220.78;;;3.94;100.00
35551;BME280;21655;46.056;13.616;2022-12-19T07:54:42;102225.81;;;4.02;100.00
35551;BME280;21655;46.056;13.616;2022-12-19T07:57:08;102211.81;;;4.06;100.00
35551;BME280;21655;46.056;13.616;2022-12-19T07:59:33;102217.00;;;4.11;100.00
35551;BME280;21655;46.056;13.616;2022-12-19T08:01:59;102216.63;;;4.17;100.00
35551;BME280;21655;46.056;13.616;2022-12-19T08:04:24;102209.91;;;4.22;100.00
35551;BME280;21655;46.056;13.616;2022-12-19T08:06:50;102209.59;;;4.27;100.00
35551;BME280;21655;46.056;13.616;2022-12-19T08:09:15;102208.44;;;4.31;100.00
35551;BME280;21655;46.056;13.616;2022-12-19T08:11:40;102209.22;;;4.33;100.00
35551;BME280;21655;46.056;13.616;2022-12-19T08:14:06;102216.38;;;4.35;100.00
35551;BME280;21655;46.056;13.616;2022-12-19T08:16:31;102214.28;;;4.25;100.00
35551;BME280;21655;46.056;13.616;2022-12-19T08:18:57;102210.88;;;4.35;100.00
35551;BME280;21655;46.056;13.616;2022-12-19T08:21:23;102221.00;;;4.49;100.00
35551;BME280;21655;46.056;13.616;2022-12-19T08:23:49;102221.50;;;4.69;100.00
35551;BME280;21655;46.056;13.616;2022-12-19T08:26:16;102215.13;;;4.97;100.00
35551;BME280;21655;46.056;13.616;2022-12-19T08:28:49;102220.19;;;5.31;100.00
35551;BME280;21655;46.056;13.616;2022-12-19T08:31:16;102212.81;;;5.57;100.00
35551;BME280;21655;46.056;13.616;2022-12-19T08:33:42;102211.78;;;5.99;100.00
35551;BME280;21655;46.056;13.616;2022-12-19T08:36:10;102219.34;;;6.22;100.00
35551;BME280;21655;46.056;13.616;2022-12-19T08:38:36;102228.53;;;6.47;100.00
35551;BME280;21655;46.056;13.616;2022-12-19T08:41:02;102216.28;;;6.39;100.00
35551;BME280;21655;46.056;13.616;2022-12-19T08:43:28;102222.47;;;6.55;100.00
35551;BME280;21655;46.056;13.616;2022-12-19T08:45:54;102223.56;;;6.65;100.00
35551;BME280;21655;46.056;13.616;2022-12-19T08:48:20;102219.50;;;6.45;100.00
35551;BME280;21655;46.056;13.616;2022-12-19T08:50:50;102232.78;;;7.26;100.00
35551;BME280;21655;46.056;13.616;2022-12-19T08:53:15;102220.28;;;6.85;99.14
35551;BME280;21655;46.056;13.616;2022-12-19T08:55:41;102234.69;;;7.01;100.00
35551;BME280;21655;46.056;13.616;2022-12-19T08:58:06;102231.44;;;7.19;100.00
35551;BME280;21655;46.056;13.616;2022-12-19T09:00:32;102222.91;;;8.17;95.66
35551;BME280;21655;46.056;13.616;2022-12-19T09:02:58;102217.50;;;8.50;90.67
35551;BME280;21655;46.056;13.616;2022-12-19T09:05:24;102218.63;;;8.48;89.25
35551;BME280;21655;46.056;13.616;2022-12-19T09:07:49;102218.88;;;8.56;87.59
35551;BME280;21655;46.056;13.616;2022-12-19T09:10:14;102209.38;;;8.02;89.69
35551;BME280;21655;46.056;13.616;2022-12-19T09:12:40;102214.03;;;7.54;90.01
35551;BME280;21655;46.056;13.616;2022-12-19T09:15:05;102211.56;;;7.62;91.88
35551;BME280;21655;46.056;13.616;2022-12-19T09:17:31;102213.38;;;7.51;91.96
35551;BME280;21655;46.056;13.616;2022-12-19T09:19:56;102216.09;;;7.28;94.59
35551;BME280;21655;46.056;13.616;2022-12-19T09:22:22;102211.88;;;6.61;96.60
35551;BME280;21655;46.056;13.616;2022-12-19T09:24:47;102211.19;;;7.08;97.04
35551;BME280;21655;46.056;13.616;2022-12-19T09:27:13;102202.56;;;7.12;95.96
35551;BME280;21655;46.056;13.616;2022-12-19T09:29:38;102201.19;;;7.30;96.38
35551;BME280;21655;46.056;13.616;2022-12-19T09:32:03;102197.97;;;7.36;94.84
35551;BME280;21655;46.056;13.616;2022-12-19T09:34:29;102209.94;;;7.12;95.63
35551;BME280;21655;46.056;13.616;2022-12-19T09:36:54;102206.56;;;6.83;97.46
35551;BME280;21655;46.056;13.616;2022-12-19T09:39:20;102197.88;;;6.64;98.56
35551;BME280;21655;46.056;13.616;2022-12-19T09:47:04;102200.75;;;6.38;100.00
35551;BME280;21655;46.056;13.616;2022-12-19T09:49:40;102206.25;;;6.50;100.00
35551;BME280;21655;46.056;13.616;2022-12-19T09:55:02;102207.25;;;6.37;100.00
35551;BME280;21655;46.056;13.616;2022-12-19T10:00:19;102198.31;;;6.46;100.00
35551;BME280;21655;46.056;13.616;2022-12-19T10:03:02;102199.84;;;6.50;100.00
35551;BME280;21655;46.056;13.616;2022-12-19T10:05:33;102190.50;;;6.40;100.00
35551;BME280;21655;46.056;13.616;2022-12-19T10:08:01;102186.28;;;6.34;100.00
35551;BME280;21655;46.056;13.616;2022-12-19T10:11:29;102185.66;;;6.43;100.00
35551;BME280;21655;46.056;13.616;2022-12-19T10:19:00;102179.91;;;6.84;100.00
35551;BME280;21655;46.056;13.616;2022-12-19T10:24:24;102181.94;;;7.05;99.02
35551;BME280;21655;46.056;13.616;2022-12-19T10:26:59;102181.59;;;7.10;97.51
35551;BME280;21655;46.056;13.616;2022-12-19T10:30:08;102184.69;;;7.05;96.53
35551;BME280;21655;46.056;13.616;2022-12-19T10:35:13;102189.59;;;8.42;91.62
35551;BME280;21655;46.056;13.616;2022-12-19T10:37:46;102179.97;;;8.81;87.76
35551;BME280;21655;46.056;13.616;2022-12-19T10:40:33;102171.56;;;8.82;86.75
35551;BME280;21655;46.056;13.616;2022-12-19T10:43:30;102183.50;;;8.26;87.22
35551;BME280;21655;46.056;13.616;2022-12-19T10:46:02;102173.78;;;8.10;88.67
35551;BME280;21655;46.056;13.616;2022-12-19T10:48:32;102175.50;;;8.34;87.90
35551;BME280;21655;46.056;13.616;2022-12-19T10:50:58;102161.78;;;8.33;86.79
35551;BME280;21655;46.056;13.616;2022-12-19T10:53:27;102163.09;;;8.51;85.71
35551;BME280;21655;46.056;13.616;2022-12-19T10:55:58;102172.00;;;8.43;86.25
35551;BME280;21655;46.056;13.616;2022-12-19T10:58:36;102163.91;;;8.29;87.20
35551;BME280;21655;46.056;13.616;2022-12-19T11:01:09;102147.63;;;8.48;88.24
35551;BME280;21655;46.056;13.616;2022-12-19T11:03:36;102156.13;;;8.23;86.40
35551;BME280;21655;46.056;13.616;2022-12-19T11:06:02;102149.97;;;7.96;87.44
35551;BME280;21655;46.056;13.616;2022-12-19T11:08:32;102151.50;;;8.24;89.49
35551;BME280;21655;46.056;13.616;2022-12-19T11:15:59;102131.78;;;8.05;89.49
35551;BME280;21655;46.056;13.616;2022-12-19T11:18:42;102132.94;;;8.02;89.62
35551;BME280;21655;46.056;13.616;2022-12-19T11:21:27;102118.31;;;7.89;88.34
35551;BME280;21655;46.056;13.616;2022-12-19T11:24:05;102125.44;;;7.81;89.68
35551;BME280;21655;46.056;13.616;2022-12-19T11:31:42;102128.72;;;7.86;89.58
35551;BME280;21655;46.056;13.616;2022-12-19T11:34:18;102122.28;;;7.74;90.86
35551;BME280;21655;46.056;13.616;2022-12-19T11:36:54;102118.50;;;7.75;91.32
35551;BME280;21655;46.056;13.616;2022-12-19T11:39:28;102112.88;;;7.77;92.58
35551;BME280;21655;46.056;13.616;2022-12-19T11:42:06;102106.88;;;7.83;91.16
35551;BME280;21655;46.056;13.616;2022-12-19T11:44:44;102113.91;;;7.87;92.85
35551;BME280;21655;46.056;13.616;2022-12-19T11:53:01;102105.66;;;7.98;89.78
35551;BME280;21655;46.056;13.616;2022-12-19T11:58:09;102087.69;;;8.93;87.79
35551;BME280;21655;46.056;13.616;2022-12-19T12:00:35;102093.22;;;8.93;86.04
35551;BME280;21655;46.056;13.616;2022-12-19T12:05:52;102077.59;;;9.45;82.97
35551;BME280;21655;46.056;13.616;2022-12-19T12:11:00;102080.84;;;9.81;79.21
35551;BME280;21655;46.056;13.616;2022-12-19T12:16:15;102075.75;;;10.78;77.35
35551;BME280;21655;46.056;13.616;2022-12-19T12:21:24;102067.81;;;11.03;74.25
35551;BME280;21655;46.056;13.616;2022-12-19T12:26:37;102066.94;;;10.33;74.51
35551;BME280;21655;46.056;13.616;2022-12-19T12:29:20;102069.00;;;9.79;76.59
35551;BME280;21655;46.056;13.616;2022-12-19T12:37:14;102057.69;;;9.51;77.82
35551;BME280;21655;46.056;13.616;2022-12-19T12:45:38;102044.63;;;9.11;82.29
35551;BME280;21655;46.056;13.616;2022-12-19T12:50:48;102046.34;;;8.58;84.26
35551;BME280;21655;46.056;13.616;2022-12-19T12:53:17;102044.34;;;8.49;85.08
35551;BME280;21655;46.056;13.616;2022-12-19T12:55:44;102042.78;;;8.01;87.59
35551;BME280;21655;46.056;13.616;2022-12-19T13:01:33;102047.84;;;7.73;90.43
35551;BME280;21655;46.056;13.616;2022-12-19T13:09:20;102032.09;;;7.51;93.38
35551;BME280;21655;46.056;13.616;2022-12-19T13:12:12;102025.03;;;7.47;94.27
35551;BME280;21655;46.056;13.616;2022-12-19T13:15:25;102032.25;;;7.61;93.94
35551;BME280;21655;46.056;13.616;2022-12-19T13:30:22;102024.75;;;7.74;93.83
35551;BME280;21655;46.056;13.616;2022-12-19T13:37:44;102025.09;;;7.58;96.55
35551;BME280;21655;46.056;13.616;2022-12-19T13:40:28;102020.97;;;7.64;94.99
35551;BME280;21655;46.056;13.616;2022-12-19T13:45:47;102027.28;;;7.88;92.86
35551;BME280;21655;46.056;13.616;2022-12-19T13:48:25;102036.31;;;7.90;94.66
35551;BME280;21655;46.056;13.616;2022-12-19T13:50:53;102042.47;;;7.82;94.33
35551;BME280;21655;46.056;13.616;2022-12-19T13:53:22;102032.22;;;7.50;95.15
35551;BME280;21655;46.056;13.616;2022-12-19T13:55:48;102031.91;;;7.31;98.60
35551;BME280;21655;46.056;13.616;2022-12-19T13:58:23;102039.28;;;7.07;99.47
35551;BME280;21655;46.056;13.616;2022-12-19T14:00:50;102045.00;;;6.93;100.00
35551;BME280;21655;46.056;13.616;2022-12-19T14:03:20;102037.72;;;6.92;100.00
35551;BME280;21655;46.056;13.616;2022-12-19T14:05:47;102048.50;;;6.95;100.00
35551;BME280;21655;46.056;13.616;2022-12-19T14:08:20;102046.56;;;6.85;100.00
35551;BME280;21655;46.056;13.616;2022-12-19T14:10:48;102045.91;;;6.81;100.00
35551;BME280;21655;46.056;13.616;2022-12-19T14:13:19;102046.81;;;6.69;100.00
35551;BME280;21655;46.056;13.616;2022-12-19T14:16:04;102049.38;;;6.60;100.00
35551;BME280;21655;46.056;13.616;2022-12-19T14:18:32;102051.84;;;6.39;100.00
35551;BME280;21655;46.056;13.616;2022-12-19T14:21:23;102059.28;;;6.26;100.00
35551;BME280;21655;46.056;13.616;2022-12-19T14:26:59;102065.19;;;6.20;100.00
35551;BME280;21655;46.056;13.616;2022-12-19T14:29:30;102065.22;;;6.08;100.00
35551;BME280;21655;46.056;13.616;2022-12-19T14:31:56;102067.06;;;6.07;100.00
35551;BME280;21655;46.056;13.616;2022-12-19T14:34:25;102073.78;;;6.03;100.00
35551;BME280;21655;46.056;13.616;2022-12-19T14:36:55;102077.09;;;5.96;100.00
35551;BME280;21655;46.056;13.616;2022-12-19T14:39:23;102082.94;;;5.91;100.00
35551;BME280;21655;46.056;13.616;2022-12-19T14:41:52;102066.53;;;5.90;100.00
35551;BME280;21655;46.056;13.616;2022-12-19T14:45:29;102080.84;;;5.82;100.00
35551;BME280;21655;46.056;13.616;2022-12-19T14:47:49;102065.38;;;5.67;100.00
35551;BME280;21655;46.056;13.616;2022-12-19T14:50:33;102069.56;;;5.60;100.00
35551;BME280;21655;46.056;13.616;2022-12-19T14:53:15;102074.47;;;5.55;100.00
35551;BME280;21655;46.056;13.616;2022-12-19T14:55:41;102080.50;;;5.48;100.00
35551;BME280;21655;46.056;13.616;2022-12-19T14:58:17;102084.47;;;5.44;100.00
35551;BME280;21655;46.056;13.616;2022-12-19T15:00:48;102076.97;;;5.34;100.00
35551;BME280;21655;46.056;13.616;2022-12-19T15:03:22;102069.91;;;5.30;100.00
35551;BME280;21655;46.056;13.616;2022-12-19T15:05:49;102076.72;;;5.24;100.00
35551;BME280;21655;46.056;13.616;2022-12-19T15:08:27;102067.00;;;5.19;100.00
35551;BME280;21655;46.056;13.616;2022-12-19T15:10:58;102068.28;;;5.13;100.00
35551;BME280;21655;46.056;13.616;2022-12-19T15:13:26;102076.06;;;5.07;100.00
35551;BME280;21655;46.056;13.616;2022-12-19T15:20:58;102075.13;;;4.94;100.00
35551;BME280;21655;46.056;13.616;2022-12-19T15:23:24;102066.22;;;4.90;100.00